Time;durP1;ratioP1;P1;durP2;ratioP2;P2;SDS_P1;SDS_P2;PMS_P1;PMS_P2;Temp;Humidity;BMP_temperature;BMP_pressure;BME280_temperature;BME280_humidity;BME280_pressure;Samples;Min_cycle;Max_cycle;Signal;HPM_P1;HPM_P2
2020/12/20 00:00:17;;;;;;;2.20;0.70;;;8.30;99.90;;;;;;5052007;28;20044;-88
2020/12/20 00:02:53;;;;;;;4.30;1.02;;;8.40;99.90;;;;;;5048308;28;20025;-88
2020/12/20 00:05:20;;;;;;;3.63;0.98;;;8.50;99.90;;;;;;5048903;28;20047;-88
2020/12/20 00:07:47;;;;;;;4.22;1.42;;;8.40;99.90;;;;;;5048790;28;20594;-89
2020/12/20 00:10:13;;;;;;;2.92;0.93;;;8.40;99.90;;;;;;5032364;28;20040;-88
2020/12/20 00:12:39;;;;;;;3.50;1.02;;;8.50;99.90;;;;;;5033046;28;20025;-87
2020/12/20 00:15:06;;;;;;;4.63;0.65;;;8.50;99.90;;;;;;5052196;28;20106;-89
2020/12/20 00:17:32;;;;;;;2.05;0.98;;;8.40;99.90;;;;;;5051883;28;20021;-89
2020/12/20 00:19:57;;;;;;;3.17;0.80;;;8.30;99.90;;;;;;5052062;28;20047;-89
2020/12/20 00:22:23;;;;;;;2.97;0.95;;;8.40;99.90;;;;;;5052237;28;20096;-90
2020/12/20 00:24:49;;;;;;;3.30;0.88;;;8.40;99.90;;;;;;5048542;28;20025;-90
2020/12/20 00:27:15;;;;;;;4.53;0.70;;;8.40;99.90;;;;;;5048458;28;20492;-88
2020/12/20 00:29:41;;;;;;;2.60;0.82;;;8.40;99.90;;;;;;5031965;28;20029;-88
2020/12/20 00:32:09;;;;;;;2.10;0.77;;;8.50;99.90;;;;;;5031940;28;20057;-88
2020/12/20 00:34:36;;;;;;;3.22;0.90;;;8.50;99.90;;;;;;5035022;28;20028;-89
2020/12/20 00:37:01;;;;;;;4.40;0.77;;;8.50;99.90;;;;;;5068452;28;20032;-88
2020/12/20 00:39:27;;;;;;;2.22;0.95;;;8.50;99.90;;;;;;5069389;28;20028;-88
2020/12/20 00:41:55;;;;;;;2.88;0.70;;;8.40;99.90;;;;;;5071509;28;20190;-88
2020/12/20 00:44:25;;;;;;;2.92;0.70;;;8.50;99.90;;;;;;5071875;28;20028;-88
2020/12/20 00:46:52;;;;;;;3.85;0.80;;;8.30;99.90;;;;;;5071562;28;20053;-88
2020/12/20 00:49:17;;;;;;;2.03;0.70;;;8.40;99.90;;;;;;5071705;28;20035;-88
2020/12/20 00:51:43;;;;;;;2.17;0.90;;;8.40;99.90;;;;;;5071840;28;20038;-88
2020/12/20 00:54:09;;;;;;;3.92;0.80;;;8.50;99.90;;;;;;5088361;28;20464;-87
2020/12/20 00:56:35;;;;;;;4.00;0.90;;;8.40;99.90;;;;;;5071579;28;20028;-88
2020/12/20 00:59:01;;;;;;;3.30;0.80;;;8.40;99.90;;;;;;5088087;28;20449;-89
2020/12/20 01:01:29;;;;;;;3.17;0.73;;;8.30;99.90;;;;;;5071880;28;20066;-89
2020/12/20 01:04:15;;;;;;;2.85;0.73;;;8.40;99.90;;;;;;5071287;28;20039;-87
2020/12/20 01:06:42;;;;;;;4.32;0.60;;;8.30;99.90;;;;;;4980058;28;20034;-89
2020/12/20 01:09:17;;;;;;;4.00;0.88;;;8.30;99.90;;;;;;4988682;28;20053;-88
2020/12/20 01:11:44;;;;;;;4.35;1.13;;;8.50;99.90;;;;;;4990622;28;20039;-88
2020/12/20 01:14:10;;;;;;;3.80;0.88;;;8.50;99.90;;;;;;4993983;28;20022;-89
2020/12/20 01:16:41;;;;;;;4.80;0.80;;;8.40;99.90;;;;;;4976062;28;20039;-88
2020/12/20 01:19:07;;;;;;;3.03;0.65;;;8.30;99.90;;;;;;4975885;28;20045;-88
2020/12/20 01:21:34;;;;;;;4.95;0.70;;;8.30;99.90;;;;;;4975626;28;20038;-88
2020/12/20 01:24:01;;;;;;;2.10;0.55;;;8.30;99.90;;;;;;4975816;28;20069;-89
2020/12/20 01:26:28;;;;;;;3.78;0.95;;;8.20;99.90;;;;;;4975938;28;20034;-89
2020/12/20 01:28:56;;;;;;;4.90;0.70;;;8.40;99.90;;;;;;4975631;28;20064;-88
2020/12/20 01:31:22;;;;;;;1.98;0.68;;;8.40;99.90;;;;;;4975653;28;20042;-89
2020/12/20 01:34:13;;;;;;;2.60;0.52;;;8.30;99.90;;;;;;4991143;28;20519;-88
2020/12/20 01:36:41;;;;;;;1.85;0.50;;;8.30;99.90;;;;;;4975681;28;20103;-88
2020/12/20 01:39:07;;;;;;;2.15;0.55;;;8.20;99.90;;;;;;4975691;28;20030;-89
2020/12/20 01:41:33;;;;;;;1.50;0.55;;;8.20;99.90;;;;;;4991734;28;20090;-88
2020/12/20 01:43:59;;;;;;;2.35;0.80;;;8.10;99.90;;;;;;5011254;28;20029;-89
2020/12/20 01:46:34;;;;;;;2.53;0.80;;;8.10;99.90;;;;;;5036342;28;20036;-88
2020/12/20 01:49:02;;;;;;;3.33;0.80;;;8.10;99.90;;;;;;5035108;28;20151;-88
2020/12/20 01:51:28;;;;;;;2.50;0.55;;;8.20;99.90;;;;;;5035311;28;20124;-89
2020/12/20 01:54:04;;;;;;;4.05;0.70;;;8.10;99.90;;;;;;5036434;28;20052;-88
2020/12/20 01:56:32;;;;;;;1.83;0.50;;;8.10;99.90;;;;;;5035047;28;20029;-88
2020/12/20 01:58:58;;;;;;;5.45;0.77;;;8.00;99.90;;;;;;5034548;28;20052;-88
2020/12/20 02:01:34;;;;;;;5.03;1.38;;;8.10;99.90;;;;;;5036155;28;20045;-89
2020/12/20 02:07:17;;;;;;;4.93;0.70;;;8.10;99.90;;;;;;5008116;28;20054;-87
2020/12/20 02:09:45;;;;;;;2.42;0.70;;;8.10;99.90;;;;;;5008243;28;20093;-87
2020/12/20 02:12:12;;;;;;;3.15;0.60;;;8.10;99.90;;;;;;5024687;28;20067;-88
2020/12/20 02:14:49;;;;;;;2.17;0.80;;;8.00;99.90;;;;;;5008268;28;20198;-88
2020/12/20 02:17:15;;;;;;;4.80;1.30;;;8.00;99.90;;;;;;4992013;28;20040;-89
2020/12/20 02:19:41;;;;;;;3.25;1.17;;;8.10;99.90;;;;;;4991985;28;20027;-88
2020/12/20 02:22:21;;;;;;;;;;;8.10;99.90;;;;;;5008696;28;20081;-88
2020/12/20 02:24:48;;;;;;;1.80;0.60;;;8.10;99.90;;;;;;4975711;28;19914;-88
2020/12/20 02:27:33;;;;;;;1.63;0.52;;;8.10;99.90;;;;;;5008489;28;20030;-89
2020/12/20 02:29:59;;;;;;;3.92;0.80;;;8.10;99.90;;;;;;5008330;28;20037;-88
2020/12/20 02:32:25;;;;;;;2.53;0.60;;;8.10;99.90;;;;;;4991899;28;20050;-88
2020/12/20 02:34:51;;;;;;;2.17;0.47;;;8.10;99.90;;;;;;5007916;28;20397;-89
2020/12/20 02:37:19;;;;;;;3.38;0.70;;;8.10;99.90;;;;;;5008045;28;20089;-88
2020/12/20 02:39:55;;;;;;;2.13;0.57;;;8.10;99.90;;;;;;4991620;28;20115;-88
2020/12/20 02:42:20;;;;;;;1.70;0.70;;;8.10;99.90;;;;;;4992030;28;20039;-88
2020/12/20 02:44:46;;;;;;;3.95;0.80;;;8.10;99.90;;;;;;4991488;28;20473;-88
2020/12/20 02:47:13;;;;;;;2.33;0.60;;;8.10;99.90;;;;;;5007915;28;20102;-89
2020/12/20 02:49:40;;;;;;;4.00;0.80;;;8.00;99.90;;;;;;4991560;28;20026;-89
2020/12/20 02:52:15;;;;;;;2.63;0.70;;;8.20;99.90;;;;;;4991592;28;20100;-88
2020/12/20 02:54:42;;;;;;;3.88;0.93;;;8.10;99.90;;;;;;4991533;28;20022;-88
2020/12/20 02:57:15;;;;;;;3.65;0.70;;;8.10;99.90;;;;;;4991464;28;20505;-88
2020/12/20 03:00:06;;;;;;;4.53;0.70;;;8.00;99.90;;;;;;4991314;28;20034;-90
2020/12/20 03:02:33;;;;;;;3.38;0.60;;;8.10;99.90;;;;;;4991535;28;20038;-89
2020/12/20 03:04:59;;;;;;;4.10;1.00;;;8.10;99.90;;;;;;4992623;28;20512;-88
2020/12/20 03:07:26;;;;;;;5.78;0.90;;;8.20;99.90;;;;;;4994368;28;20048;-88
2020/12/20 03:09:53;;;;;;;3.08;0.80;;;8.20;99.90;;;;;;4994499;28;20052;-87
2020/12/20 03:12:22;;;;;;;4.95;0.70;;;8.20;99.90;;;;;;4994490;28;20030;-88
2020/12/20 03:14:48;;;;;;;4.30;0.77;;;8.10;99.90;;;;;;4994142;28;20117;-88
2020/12/20 03:17:17;;;;;;;2.03;0.73;;;8.10;99.90;;;;;;4994208;28;20080;-88
2020/12/20 03:19:43;;;;;;;4.20;0.80;;;8.10;99.90;;;;;;5010085;28;20056;-88
2020/12/20 03:22:12;;;;;;;2.88;0.60;;;8.30;99.90;;;;;;5026259;28;20284;-88
2020/12/20 03:25:13;;;;;;;2.55;0.77;;;8.20;99.90;;;;;;4978618;28;20062;-88
2020/12/20 03:28:03;;;;;;;7.22;1.42;;;8.20;99.90;;;;;;5017628;28;20138;-89
2020/12/20 03:30:43;;;;;;;2.58;0.70;;;8.30;99.90;;;;;;5010063;28;20042;-88
2020/12/20 03:33:29;;;;;;;5.57;0.70;;;8.10;99.90;;;;;;5026092;28;20362;-89
2020/12/20 03:36:13;;;;;;;1.77;0.70;;;8.20;99.90;;;;;;5025843;28;20053;-88
2020/12/20 03:38:39;;;;;;;2.95;0.70;;;8.20;99.90;;;;;;5009962;28;20177;-88
2020/12/20 03:41:05;;;;;;;4.47;0.70;;;8.10;99.90;;;;;;5009942;28;20486;-90
2020/12/20 03:43:33;;;;;;;2.15;0.60;;;8.00;99.90;;;;;;5009974;28;20474;-90
2020/12/20 03:45:59;;;;;;;2.53;0.63;;;8.00;99.90;;;;;;5009845;28;20076;-88
2020/12/20 03:48:34;;;;;;;4.95;0.90;;;8.10;99.90;;;;;;5010058;28;20093;-88
2020/12/20 03:51:00;;;;;;;4.57;0.75;;;8.20;99.90;;;;;;5009721;28;20068;-89
2020/12/20 03:53:26;;;;;;;3.13;0.80;;;8.10;99.90;;;;;;5009817;28;20037;-88
2020/12/20 03:56:04;;;;;;;4.25;0.70;;;8.20;99.90;;;;;;5009841;28;20330;-88
2020/12/20 03:58:32;;;;;;;4.32;0.90;;;8.10;99.90;;;;;;5009735;28;20057;-88
2020/12/20 04:00:58;;;;;;;6.90;0.75;;;8.20;99.90;;;;;;5009633;28;20407;-89
2020/12/20 04:03:30;;;;;;;4.53;0.80;;;8.20;99.90;;;;;;5009637;28;20053;-87
2020/12/20 04:05:56;;;;;;;1.90;0.70;;;8.20;99.90;;;;;;5007964;28;20089;-87
2020/12/20 04:08:24;;;;;;;2.67;1.00;;;8.30;99.90;;;;;;5026025;28;20049;-88
2020/12/20 04:11:04;;;;;;;2.83;0.60;;;8.40;99.90;;;;;;5012754;28;20037;-88
2020/12/20 04:13:32;;;;;;;4.53;1.00;;;8.30;99.90;;;;;;5011140;28;20072;-88
2020/12/20 04:16:08;;;;;;;5.18;0.88;;;8.40;99.90;;;;;;5018170;28;20126;-88
2020/12/20 04:18:35;;;;;;;3.60;1.10;;;8.40;99.90;;;;;;4990139;28;20093;-88
2020/12/20 04:21:00;;;;;;;6.63;0.85;;;8.50;99.90;;;;;;4989856;28;20045;-88
2020/12/20 04:23:28;;;;;;;3.63;0.90;;;8.50;99.90;;;;;;4989936;28;20033;-89
2020/12/20 04:26:12;;;;;;;4.95;0.63;;;8.50;99.90;;;;;;4989667;28;20080;-88
2020/12/20 04:29:07;;;;;;;3.25;0.70;;;8.50;99.90;;;;;;4993471;28;20077;-88
2020/12/20 04:31:39;;;;;;;4.93;0.90;;;8.50;99.90;;;;;;4989530;28;20037;-88
2020/12/20 04:34:05;;;;;;;3.85;0.70;;;8.60;99.90;;;;;;4989524;28;20093;-88
2020/12/20 04:36:31;;;;;;;3.22;0.80;;;8.40;99.90;;;;;;5005728;28;20057;-89
2020/12/20 04:39:07;;;;;;;2.80;0.68;;;8.50;99.90;;;;;;4967472;28;20027;-88
2020/12/20 04:41:33;;;;;;;3.22;0.75;;;8.50;99.90;;;;;;4989576;28;20110;-88
2020/12/20 04:44:03;;;;;;;1.85;0.60;;;8.50;99.90;;;;;;4989567;28;20027;-88
2020/12/20 04:46:30;;;;;;;3.05;0.70;;;8.40;99.90;;;;;;4989416;28;20049;-87
2020/12/20 04:49:29;;;;;;;6.90;0.77;;;8.40;99.90;;;;;;5000591;28;20494;-88
2020/12/20 04:52:00;;;;;;;4.88;1.75;;;8.30;99.90;;;;;;4989044;28;20045;-88
2020/12/20 04:54:32;;;;;;;4.10;0.70;;;8.30;99.90;;;;;;4973778;28;20034;-89
2020/12/20 04:56:58;;;;;;;3.90;0.50;;;8.30;99.90;;;;;;4989416;28;20033;-87
2020/12/20 04:59:35;;;;;;;2.78;0.70;;;8.30;99.90;;;;;;4989347;28;20313;-88
2020/12/20 05:02:04;;;;;;;5.07;0.95;;;8.30;99.90;;;;;;5004341;28;20039;-88
2020/12/20 05:04:31;;;;;;;5.97;0.75;;;8.30;99.90;;;;;;4989370;28;20101;-88
2020/12/20 05:06:57;;;;;;;3.60;0.70;;;8.30;99.90;;;;;;4974747;28;20048;-88
2020/12/20 05:09:46;;;;;;;2.55;0.70;;;8.30;99.90;;;;;;5003757;28;20026;-88
2020/12/20 05:12:30;;;;;;;2.67;0.52;;;8.20;99.90;;;;;;4973023;28;20034;-88
2020/12/20 05:15:18;;;;;;;1.98;0.50;;;8.20;99.90;;;;;;4988520;28;20038;-89
2020/12/20 05:17:45;;;;;;;3.22;0.50;;;8.10;99.90;;;;;;4988809;28;20117;-88
2020/12/20 05:20:43;;;;;;;4.18;0.70;;;8.20;99.90;;;;;;5004222;28;20265;-89
2020/12/20 05:23:14;;;;;;;2.58;0.70;;;8.30;99.90;;;;;;5004841;28;20102;-88
2020/12/20 05:25:42;;;;;;;3.13;0.50;;;8.20;99.90;;;;;;5005293;28;20034;-88
2020/12/20 05:28:18;;;;;;;3.92;0.70;;;8.20;99.90;;;;;;5005094;28;20061;-88
2020/12/20 05:30:49;;;;;;;1.55;0.43;;;8.20;99.90;;;;;;5004361;28;20102;-88
2020/12/20 05:33:34;;;;;;;2.80;0.40;;;8.10;99.90;;;;;;5005625;28;20042;-88
2020/12/20 05:36:25;;;;;;;1.70;0.60;;;8.10;99.90;;;;;;4999054;28;20034;-88
2020/12/20 05:39:15;;;;;;;3.10;0.70;;;8.20;99.90;;;;;;5004026;28;20054;-88
2020/12/20 05:41:43;;;;;;;3.97;0.60;;;8.20;99.90;;;;;;5004566;28;20042;-87
2020/12/20 05:44:20;;;;;;;9.13;0.75;;;8.10;99.90;;;;;;5004955;28;20031;-88
2020/12/20 05:46:48;;;;;;;2.30;0.60;;;8.20;99.90;;;;;;4973042;28;20041;-89
2020/12/20 05:49:20;;;;;;;2.35;0.55;;;8.20;99.90;;;;;;4972676;28;20031;-88
2020/12/20 05:52:10;;;;;;;3.70;0.60;;;8.20;99.90;;;;;;5021359;28;20030;-88
2020/12/20 05:54:38;;;;;;;2.97;0.65;;;8.10;99.90;;;;;;4988823;28;20124;-88
2020/12/20 05:57:07;;;;;;;2.08;0.60;;;8.20;99.90;;;;;;4988521;28;20034;-88
2020/12/20 05:59:33;;;;;;;3.42;0.80;;;8.10;99.90;;;;;;5024507;28;20035;-87
2020/12/20 06:02:02;;;;;;;1.90;0.60;;;8.10;99.90;;;;;;5008449;28;20096;-87
2020/12/20 06:07:26;;;;;;;1.70;0.60;;;8.10;99.90;;;;;;5052950;28;20064;-88
2020/12/20 06:09:59;;;;;;;2.38;0.50;;;8.10;99.90;;;;;;5068208;28;20033;-88
2020/12/20 06:12:31;;;;;;;1.97;0.63;;;8.00;99.90;;;;;;5051629;28;20029;-88
2020/12/20 06:14:58;;;;;;;1.88;0.50;;;8.10;99.90;;;;;;5048082;28;20083;-88
2020/12/20 06:17:28;;;;;;;2.50;0.50;;;8.00;99.90;;;;;;5031264;28;20493;-90
2020/12/20 06:20:01;;;;;;;3.30;0.50;;;8.00;99.90;;;;;;5047644;28;20033;-88
2020/12/20 06:22:30;;;;;;;3.40;0.80;;;8.00;99.90;;;;;;5047771;28;20033;-88
2020/12/20 06:24:58;;;;;;;2.65;0.70;;;8.00;99.90;;;;;;5047954;28;20061;-88
2020/12/20 06:27:28;;;;;;;3.60;0.50;;;8.00;99.90;;;;;;5031444;28;20482;-88
2020/12/20 06:29:58;;;;;;;2.13;0.50;;;8.00;99.90;;;;;;5047666;28;20539;-88
2020/12/20 06:32:33;;;;;;;;;;;8.00;99.90;;;;;;5031782;28;20033;-88
2020/12/20 06:35:09;;;;;;;2.17;0.90;;;8.00;99.90;;;;;;5047306;28;19920;-86
2020/12/20 06:37:40;;;;;;;2.78;0.60;;;8.00;99.90;;;;;;5048730;28;20052;-88
2020/12/20 06:40:05;;;;;;;3.83;0.60;;;8.00;99.90;;;;;;5049282;28;20072;-88
2020/12/20 06:42:39;;;;;;;2.60;0.55;;;8.00;99.90;;;;;;5049289;28;20037;-88
2020/12/20 06:45:21;;;;;;;3.30;0.50;;;7.90;99.90;;;;;;5047427;28;20033;-88
2020/12/20 06:47:50;;;;;;;1.77;0.52;;;7.90;99.90;;;;;;5047354;28;20053;-88
2020/12/20 06:50:38;;;;;;;2.65;0.57;;;8.00;99.90;;;;;;5030845;28;20099;-88
2020/12/20 06:53:08;;;;;;;4.80;0.70;;;7.80;99.90;;;;;;5047461;28;20071;-88
2020/12/20 06:55:34;;;;;;;;;;;7.80;99.90;;;;;;5047820;28;20061;-88
2020/12/20 06:58:02;;;;;;;2.03;0.47;;;7.80;99.90;;;;;;5047159;28;19971;-89
2020/12/20 07:00:40;;;;;;;3.15;0.60;;;7.80;99.90;;;;;;5046952;28;20037;-87
2020/12/20 07:03:06;;;;;;;3.45;0.60;;;7.80;99.90;;;;;;5047228;28;20040;-88
2020/12/20 07:05:40;;;;;;;3.10;0.70;;;7.80;99.90;;;;;;5046606;28;20528;-88
2020/12/20 07:08:29;;;;;;;3.40;0.60;;;7.80;99.90;;;;;;5027219;28;20037;-87
2020/12/20 07:10:56;;;;;;;3.03;0.80;;;7.90;99.90;;;;;;5028014;28;20029;-87
2020/12/20 07:13:44;;;;;;;2.90;0.50;;;7.90;99.90;;;;;;5046815;28;20584;-88
2020/12/20 07:16:18;;;;;;;2.05;0.50;;;7.80;99.90;;;;;;5059113;28;20040;-91
2020/12/20 07:18:49;;;;;;;2.42;0.50;;;7.80;99.90;;;;;;5050062;28;20040;-88
2020/12/20 07:21:18;;;;;;;3.50;0.60;;;7.70;99.90;;;;;;5049882;28;20063;-90
2020/12/20 07:23:47;;;;;;;3.95;0.65;;;7.80;99.90;;;;;;5050246;28;20033;-90
2020/12/20 07:26:13;;;;;;;3.13;0.70;;;7.80;99.90;;;;;;5046350;28;20026;-90
2020/12/20 07:28:39;;;;;;;2.72;0.82;;;7.70;99.90;;;;;;5046412;28;20060;-90
2020/12/20 07:31:15;;;;;;;3.53;0.70;;;7.80;99.90;;;;;;5046389;28;20040;-92
2020/12/20 07:33:41;;;;;;;1.95;0.52;;;7.70;99.90;;;;;;5047775;28;20085;-92
2020/12/20 07:36:07;;;;;;;2.40;0.50;;;7.60;99.90;;;;;;5046070;28;20033;-89
2020/12/20 07:38:32;;;;;;;3.05;0.50;;;7.60;99.90;;;;;;5046054;28;20053;-93
2020/12/20 07:40:58;;;;;;;5.65;0.60;;;7.60;99.90;;;;;;5029428;28;20541;-92
2020/12/20 07:43:24;;;;;;;2.15;0.65;;;7.60;99.90;;;;;;5029148;28;20021;-91
2020/12/20 07:45:59;;;;;;;5.10;0.60;;;7.60;99.90;;;;;;5046198;28;20404;-93
2020/12/20 07:48:26;;;;;;;3.67;0.60;;;7.60;99.90;;;;;;5046129;28;20036;-89
2020/12/20 07:50:53;;;;;;;4.85;1.13;;;7.70;99.90;;;;;;5029017;28;20097;-89
2020/12/20 07:53:19;;;;;;;3.83;0.77;;;7.70;99.90;;;;;;5046083;28;20036;-88
2020/12/20 07:55:50;;;;;;;5.35;0.75;;;7.80;99.90;;;;;;5029317;28;20097;-90
2020/12/20 07:58:18;;;;;;;3.97;0.88;;;7.80;99.90;;;;;;5028548;28;20101;-87
2020/12/20 08:00:44;;;;;;;4.00;1.05;;;7.80;99.90;;;;;;5045084;28;20497;-87
2020/12/20 08:03:11;;;;;;;3.78;0.70;;;7.70;99.90;;;;;;5045110;28;20112;-87
2020/12/20 08:05:37;;;;;;;3.90;0.70;;;7.70;99.90;;;;;;5027912;28;20053;-88
2020/12/20 08:08:03;;;;;;;2.80;0.60;;;7.70;99.90;;;;;;5012418;28;20113;-89
2020/12/20 08:10:29;;;;;;;4.45;0.77;;;7.80;99.90;;;;;;5012618;28;20038;-87
2020/12/20 08:12:54;;;;;;;5.47;0.90;;;7.70;99.90;;;;;;5045069;28;20057;-88
2020/12/20 08:15:20;;;;;;;3.38;0.95;;;7.90;99.90;;;;;;5031871;28;20025;-88
2020/12/20 08:17:46;;;;;;;4.45;0.60;;;7.90;99.90;;;;;;5064661;28;20056;-88
2020/12/20 08:20:13;;;;;;;2.40;0.80;;;7.80;99.90;;;;;;5065885;28;20124;-88
2020/12/20 08:22:39;;;;;;;3.08;0.55;;;7.80;99.90;;;;;;5064503;28;20053;-88
2020/12/20 08:25:09;;;;;;;2.10;0.60;;;7.90;99.90;;;;;;5048072;28;20040;-87
2020/12/20 08:27:37;;;;;;;;;;;7.90;99.90;;;;;;5048711;28;20037;-87
2020/12/20 08:30:08;;;;;;;4.00;0.70;;;7.80;99.90;;;;;;5048145;28;19909;-88
2020/12/20 08:32:41;;;;;;;10.95;0.70;;;7.90;99.90;;;;;;5064512;28;20119;-88
2020/12/20 08:35:11;;;;;;;3.95;0.80;;;8.00;99.90;;;;;;5047840;28;20095;-88
2020/12/20 08:37:37;;;;;;;4.43;0.65;;;8.00;99.90;;;;;;5047608;28;20029;-88
2020/12/20 08:40:14;;;;;;;3.55;0.70;;;8.00;99.90;;;;;;5047793;28;20087;-88
2020/12/20 08:42:42;;;;;;;4.80;0.68;;;8.10;99.90;;;;;;5048088;28;20040;-89
2020/12/20 08:45:18;;;;;;;6.30;0.60;;;8.10;99.90;;;;;;5047822;28;20464;-88
2020/12/20 08:47:44;;;;;;;4.03;0.60;;;8.10;99.90;;;;;;5047770;28;20036;-87
2020/12/20 08:50:12;;;;;;;6.57;0.68;;;8.10;99.90;;;;;;5047980;28;20032;-88
2020/12/20 08:52:38;;;;;;;6.32;0.65;;;8.20;99.90;;;;;;5064222;28;20044;-87
2020/12/20 08:55:07;;;;;;;5.00;1.30;;;8.20;99.90;;;;;;5047757;28;20029;-89
2020/12/20 08:57:34;;;;;;;3.45;0.47;;;8.10;99.90;;;;;;5047553;28;20063;-88
2020/12/20 09:00:14;;;;;;;2.95;0.60;;;8.20;99.90;;;;;;5065399;28;20021;-89
2020/12/20 09:02:40;;;;;;;6.55;0.70;;;8.20;99.90;;;;;;5047809;28;20037;-88
2020/12/20 09:05:14;;;;;;;6.20;0.80;;;8.30;99.90;;;;;;5062399;22;20111;-87
2020/12/20 09:08:11;;;;;;;4.00;0.70;;;8.30;99.90;;;;;;3539055;22;20245;-85
2020/12/20 09:10:37;;;;;;;5.95;0.63;;;8.40;99.90;;;;;;5045906;28;20065;-87
2020/12/20 09:13:08;;;;;;;3.17;0.57;;;8.40;99.90;;;;;;5031754;28;20087;-86
2020/12/20 09:15:43;;;;;;;5.13;0.70;;;8.40;99.90;;;;;;5044589;28;20025;-87
2020/12/20 09:18:15;;;;;;;8.40;0.80;;;8.50;99.90;;;;;;5011553;28;20041;-87
2020/12/20 09:20:43;;;;;;;6.95;1.10;;;8.40;99.90;;;;;;5027668;28;20037;-88
2020/12/20 09:23:21;;;;;;;4.30;0.70;;;8.50;99.90;;;;;;5027473;28;20033;-87
2020/12/20 09:25:48;;;;;;;5.40;1.00;;;8.50;99.90;;;;;;5027928;28;20030;-87
2020/12/20 09:28:29;;;;;;;4.13;0.60;;;8.50;99.90;;;;;;4555867;22;20047;-86
2020/12/20 09:30:56;;;;;;;4.25;0.75;;;8.50;99.90;;;;;;5099902;28;20482;-87
2020/12/20 09:33:33;;;;;;;5.53;0.80;;;8.50;99.90;;;;;;5113478;27;20080;-87
2020/12/20 09:36:14;;;;;;;6.85;0.80;;;8.60;99.90;;;;;;5113116;27;20035;-86
2020/12/20 09:38:45;;;;;;;6.00;0.70;;;8.50;99.90;;;;;;5132186;27;20031;-88
2020/12/20 09:41:13;;;;;;;9.52;0.73;;;8.50;99.90;;;;;;5115030;27;20039;-87
2020/12/20 09:43:40;;;;;;;5.35;0.70;;;8.50;99.90;;;;;;5115103;27;20051;-87
2020/12/20 09:46:07;;;;;;;5.82;0.82;;;8.50;99.90;;;;;;5115391;27;20027;-87
2020/12/20 09:48:36;;;;;;;6.13;0.95;;;8.60;99.90;;;;;;5150136;27;20031;-87
2020/12/20 09:51:02;;;;;;;6.00;0.90;;;8.60;99.90;;;;;;5150368;27;20061;-87
2020/12/20 09:53:28;;;;;;;7.03;0.80;;;8.60;99.90;;;;;;5114412;27;20035;-87
2020/12/20 09:55:54;;;;;;;4.60;0.77;;;8.60;99.90;;;;;;5112970;27;20023;-87
2020/12/20 09:58:20;;;;;;;4.10;0.85;;;8.60;99.90;;;;;;5111709;27;20084;-87
2020/12/20 10:00:48;;;;;;;5.82;0.70;;;8.60;99.90;;;;;;5112662;27;20049;-87
2020/12/20 10:03:13;;;;;;;8.00;1.17;;;8.60;99.90;;;;;;5112017;27;20031;-87
2020/12/20 10:05:45;;;;;;;7.60;0.95;;;8.70;99.90;;;;;;5084175;27;20061;-88
2020/12/20 10:08:14;;;;;;;4.13;0.60;;;8.80;99.90;;;;;;5108151;27;20046;-88
2020/12/20 10:10:39;;;;;;;4.72;1.17;;;8.80;99.90;;;;;;5106127;27;20020;-87
2020/12/20 10:13:05;;;;;;;9.25;1.10;;;8.80;99.90;;;;;;5102976;28;20046;-88
2020/12/20 10:15:30;;;;;;;7.93;0.70;;;8.90;99.90;;;;;;5099315;28;20038;-87
2020/12/20 10:17:58;;;;;;;9.45;0.82;;;8.90;99.90;;;;;;5105018;28;20024;-87
2020/12/20 10:20:24;;;;;;;6.55;1.13;;;8.90;99.90;;;;;;5098226;28;20031;-89
2020/12/20 10:22:49;;;;;;;6.30;1.33;;;8.90;99.90;;;;;;5104164;27;20051;-88
2020/12/20 10:25:15;;;;;;;2.70;0.73;;;8.90;99.90;;;;;;5112838;28;20034;-87
2020/12/20 10:27:41;;;;;;;6.85;1.58;;;9.00;99.90;;;;;;5117004;27;20137;-87
2020/12/20 10:30:07;;;;;;;6.38;1.30;;;9.00;99.90;;;;;;5124383;27;20035;-87
2020/12/20 10:32:32;;;;;;;8.05;1.63;;;9.00;99.90;;;;;;5106895;27;20038;-88
2020/12/20 10:34:58;;;;;;;6.72;1.20;;;9.10;99.90;;;;;;5101552;28;20035;-87
2020/12/20 10:37:24;;;;;;;11.25;3.08;;;9.10;99.90;;;;;;5109449;27;20490;-87
2020/12/20 10:39:49;;;;;;;7.18;2.05;;;9.10;99.90;;;;;;5099153;28;20036;-87
2020/12/20 10:42:15;;;;;;;7.65;1.73;;;9.10;99.90;;;;;;5105771;28;20046;-88
2020/12/20 10:44:41;;;;;;;6.13;1.60;;;9.10;99.90;;;;;;5121417;27;20035;-86
2020/12/20 10:47:08;;;;;;;8.70;2.67;;;9.10;99.90;;;;;;5101006;28;20023;-87
2020/12/20 10:49:34;;;;;;;6.25;1.70;;;9.20;99.90;;;;;;5107720;27;20023;-89
2020/12/20 10:52:00;;;;;;;13.35;3.95;;;9.20;99.90;;;;;;5106142;27;20076;-88
2020/12/20 10:54:29;;;;;;;6.97;3.72;;;9.20;99.90;;;;;;5112620;27;20453;-88
2020/12/20 10:56:58;;;;;;;9.52;2.70;;;9.30;99.90;;;;;;5111237;27;20018;-89
2020/12/20 10:59:30;;;;;;;7.97;2.45;;;9.30;99.90;;;;;;5118019;28;20042;-89
2020/12/20 11:01:56;;;;;;;7.68;2.08;;;9.30;99.90;;;;;;5109103;27;20053;-90
2020/12/20 11:04:23;;;;;;;6.18;1.13;;;9.30;99.90;;;;;;5107984;28;20030;-89
2020/12/20 11:06:48;;;;;;;8.80;1.50;;;9.30;99.90;;;;;;5111602;27;20051;-88
2020/12/20 11:09:14;;;;;;;10.50;2.33;;;9.30;99.90;;;;;;5097219;27;20039;-89
2020/12/20 11:11:41;;;;;;;10.13;1.20;;;9.30;99.90;;;;;;5128924;27;20035;-89
2020/12/20 11:14:07;;;;;;;6.43;0.90;;;9.30;99.90;;;;;;5109046;28;20027;-87
2020/12/20 11:16:33;;;;;;;6.68;1.27;;;9.30;99.90;;;;;;5109606;27;20060;-88
2020/12/20 11:18:59;;;;;;;6.63;1.27;;;9.20;99.90;;;;;;5099643;27;20027;-88
2020/12/20 11:21:24;;;;;;;9.10;1.02;;;9.30;99.90;;;;;;5104118;27;20058;-89
2020/12/20 11:23:50;;;;;;;6.47;1.50;;;9.30;99.90;;;;;;5122012;27;20016;-89
2020/12/20 11:26:23;;;;;;;5.68;0.90;;;9.30;99.90;;;;;;5108815;28;20028;-89
2020/12/20 11:28:51;;;;;;;7.57;1.08;;;9.30;99.90;;;;;;5104522;27;20032;-91
2020/12/20 11:31:19;;;;;;;4.82;1.08;;;9.30;99.90;;;;;;5114312;27;20042;-90
2020/12/20 11:33:45;;;;;;;7.65;0.90;;;9.30;99.90;;;;;;5096916;28;20466;-89
2020/12/20 11:36:19;;;;;;;7.63;0.93;;;9.30;99.90;;;;;;5095953;28;20036;-89
2020/12/20 11:38:45;;;;;;;6.45;1.30;;;9.30;99.90;;;;;;5109378;27;20023;-89
2020/12/20 11:41:12;;;;;;;13.40;1.52;;;9.40;99.90;;;;;;5097559;28;20043;-91
2020/12/20 11:43:37;;;;;;;11.27;1.17;;;9.30;99.90;;;;;;5097672;28;20102;-89
2020/12/20 11:46:03;;;;;;;8.45;0.90;;;9.40;99.90;;;;;;5099926;27;20031;-89
2020/12/20 11:48:29;;;;;;;8.35;1.13;;;9.30;99.90;;;;;;5141889;27;20071;-89
2020/12/20 11:50:55;;;;;;;6.47;0.90;;;9.30;99.90;;;;;;5105017;28;20114;-89
2020/12/20 11:53:21;;;;;;;8.10;1.10;;;9.50;99.90;;;;;;5104832;27;20095;-90
2020/12/20 11:55:47;;;;;;;7.25;0.65;;;9.50;99.90;;;;;;5099526;28;20036;-89
2020/12/20 11:58:13;;;;;;;9.38;0.80;;;9.60;99.90;;;;;;5123248;27;20098;-88
2020/12/20 12:00:46;;;;;;;8.10;0.70;;;9.60;99.90;;;;;;5100478;27;20043;-91
2020/12/20 12:03:13;;;;;;;9.00;1.00;;;9.70;99.90;;;;;;5105568;27;20023;-89
2020/12/20 12:05:44;;;;;;;6.28;1.05;;;9.80;99.90;;;;;;5086873;22;20071;-89
2020/12/20 12:08:11;;;;;;;9.27;0.73;;;9.80;99.90;;;;;;5073779;28;20052;-89
2020/12/20 12:10:42;;;;;;;8.30;0.85;;;9.90;99.90;;;;;;5065089;28;20040;-88
2020/12/20 12:13:08;;;;;;;6.30;0.82;;;9.90;99.90;;;;;;5048678;28;20031;-90
2020/12/20 12:15:34;;;;;;;8.95;1.15;;;9.80;99.90;;;;;;5064309;28;20039;-89
2020/12/20 12:18:00;;;;;;;6.80;0.85;;;9.90;99.90;;;;;;5068027;28;20594;-89
2020/12/20 12:20:26;;;;;;;7.75;1.13;;;9.90;99.90;;;;;;5078843;28;20108;-91
2020/12/20 12:22:52;;;;;;;9.88;0.80;;;9.90;99.90;;;;;;5055709;28;20091;-89
2020/12/20 12:25:17;;;;;;;8.50;1.17;;;9.90;99.90;;;;;;5065475;28;20047;-89
2020/12/20 12:27:43;;;;;;;6.00;1.02;;;10.00;99.90;;;;;;5068426;28;20123;-89
2020/12/20 12:30:10;;;;;;;9.13;1.65;;;10.10;99.90;;;;;;5060930;28;20041;-90
2020/12/20 12:32:36;;;;;;;8.55;1.30;;;10.10;99.90;;;;;;5064778;28;20033;-90
2020/12/20 12:35:06;;;;;;;7.97;1.38;;;10.20;99.90;;;;;;5062903;28;20038;-90
2020/12/20 12:37:32;;;;;;;8.73;0.70;;;10.10;99.90;;;;;;5052202;28;20233;-91
2020/12/20 12:40:01;;;;;;;6.28;0.60;;;10.10;99.90;;;;;;5063143;28;20036;-91
2020/12/20 12:42:26;;;;;;;10.50;0.93;;;10.10;99.90;;;;;;5049880;28;20089;-93
2020/12/20 12:44:52;;;;;;;6.00;0.80;;;10.10;99.90;;;;;;5052351;28;20461;-92
2020/12/20 12:47:18;;;;;;;8.25;1.50;;;10.20;99.90;;;;;;5048792;28;20247;-90
2020/12/20 12:49:44;;;;;;;4.53;0.90;;;10.30;99.90;;;;;;5052235;28;20060;-93
2020/12/20 12:52:09;;;;;;;9.32;1.73;;;10.30;99.90;;;;;;5059271;28;20048;-92
2020/12/20 12:54:35;;;;;;;8.50;0.90;;;10.30;99.90;;;;;;5064998;28;20040;-90
2020/12/20 12:57:01;;;;;;;12.93;1.80;;;10.30;99.90;;;;;;5066049;28;20032;-92
2020/12/20 12:59:28;;;;;;;10.00;0.73;;;10.40;99.90;;;;;;5060516;28;20104;-92
2020/12/20 13:01:55;;;;;;;10.25;0.98;;;10.40;99.90;;;;;;5065302;28;20497;-94
2020/12/20 13:04:21;;;;;;;8.55;1.15;;;10.40;99.90;;;;;;5066966;28;20100;-90
2020/12/20 13:06:47;;;;;;;8.52;1.52;;;10.40;99.90;;;;;;5049487;28;20107;-89
2020/12/20 13:09:13;;;;;;;10.38;0.70;;;10.40;99.90;;;;;;5066609;28;20063;-91
2020/12/20 13:11:40;;;;;;;6.00;0.90;;;10.40;99.90;;;;;;5065065;28;20024;-89
2020/12/20 13:14:06;;;;;;;9.90;1.08;;;10.50;99.90;;;;;;5054368;28;20033;-91
2020/12/20 13:16:32;;;;;;;11.82;0.93;;;10.50;99.90;;;;;;5049367;28;20611;-93